createdAt,value
2023-08-24T00:01:06.568Z,59.50
2023-08-24T00:03:34.109Z,59.00
2023-08-24T00:06:02.936Z,58.40
2023-08-24T00:08:30.296Z,57.70
2023-08-24T00:10:57.659Z,58.80
2023-08-24T00:13:25.013Z,59.30
2023-08-24T00:15:53.171Z,59.60
2023-08-24T00:18:22.737Z,59.50
2023-08-24T00:20:50.499Z,59.60
2023-08-24T00:23:19.376Z,59.30
2023-08-24T00:25:46.721Z,58.80
2023-08-24T00:28:14.092Z,59.50
2023-08-24T00:30:41.650Z,60.50
2023-08-24T00:33:09.050Z,60.40
2023-08-24T00:35:36.735Z,60.50
2023-08-24T00:38:04.224Z,61.30
2023-08-24T00:40:33.628Z,61.60
2023-08-24T00:43:01.955Z,61.80
2023-08-24T00:45:31.727Z,60.70
2023-08-24T00:47:59.208Z,61.20
2023-08-24T00:50:26.809Z,61.60
2023-08-24T00:52:54.355Z,60.10
2023-08-24T00:55:22.458Z,60.00
2023-08-24T00:57:52.555Z,60.00
2023-08-24T01:00:21.112Z,60.00
2023-08-24T01:02:48.533Z,60.60
2023-08-24T01:05:15.852Z,62.60
2023-08-24T01:07:43.763Z,62.80
2023-08-24T01:10:12.473Z,63.00
2023-08-24T01:12:59.983Z,63.20
2023-08-24T01:15:33.954Z,63.30
2023-08-24T01:18:06.191Z,63.80
2023-08-24T01:20:35.344Z,64.00
2023-08-24T01:23:10.204Z,63.20
2023-08-24T01:25:47.234Z,62.20
2023-08-24T01:28:17.050Z,62.40
2023-08-24T01:30:45.204Z,63.70
2023-08-24T01:33:13.291Z,64.10
2023-08-24T01:35:41.436Z,64.00
2023-08-24T01:38:13.786Z,63.80
2023-08-24T01:40:53.810Z,63.50
2023-08-24T01:43:42.376Z,63.70
2023-08-24T01:46:16.162Z,62.40
2023-08-24T01:48:45.598Z,64.40
2023-08-24T01:51:13.982Z,64.20
2023-08-24T01:53:42.153Z,64.30
2023-08-24T01:56:11.045Z,64.40
2023-08-24T01:58:39.918Z,64.40
2023-08-24T02:01:08.128Z,64.60
2023-08-24T02:03:35.655Z,64.50
2023-08-24T02:06:03.612Z,64.30
2023-08-24T02:08:31.872Z,64.30
2023-08-24T02:10:59.177Z,63.80
2023-08-24T02:13:26.546Z,63.50
2023-08-24T02:16:03.792Z,64.80
2023-08-24T02:18:31.118Z,65.30
2023-08-24T02:20:58.535Z,65.50
2023-08-24T02:23:25.908Z,66.00
2023-08-24T02:25:53.309Z,66.00
2023-08-24T02:28:20.593Z,66.10
2023-08-24T02:30:48.605Z,66.30
2023-08-24T02:33:20.089Z,65.30
2023-08-24T02:35:48.640Z,65.60
2023-08-24T02:38:16.028Z,66.00
2023-08-24T02:40:43.443Z,66.30
2023-08-24T02:43:10.790Z,66.30
2023-08-24T02:45:38.579Z,65.70
2023-08-24T02:48:06.581Z,66.20
2023-08-24T02:50:36.241Z,66.20
2023-08-24T02:53:04.251Z,66.20
2023-08-24T02:55:33.218Z,66.20
2023-08-24T02:58:00.517Z,66.20
2023-08-24T03:00:27.821Z,65.90
2023-08-24T03:02:55.414Z,65.50
2023-08-24T03:05:22.851Z,65.90
2023-08-24T03:07:52.105Z,65.90
2023-08-24T03:10:19.566Z,65.60
2023-08-24T03:12:46.933Z,65.20
2023-08-24T03:15:14.574Z,65.00
2023-08-24T03:17:42.588Z,65.50
2023-08-24T03:20:11.970Z,64.80
2023-08-24T03:22:39.407Z,65.20
2023-08-24T03:25:08.800Z,64.90
2023-08-24T03:27:36.144Z,65.10
2023-08-24T03:30:05.444Z,63.70
2023-08-24T03:32:32.817Z,64.50
2023-08-24T03:35:00.945Z,63.90
2023-08-24T03:37:28.212Z,63.90
2023-08-24T03:39:55.607Z,63.60
2023-08-24T03:42:24.335Z,63.60
2023-08-24T03:44:51.889Z,63.40
2023-08-24T03:47:19.240Z,63.00
2023-08-24T03:49:46.543Z,62.80
2023-08-24T03:52:15.267Z,62.40
2023-08-24T03:54:43.409Z,62.40
2023-08-24T03:57:10.734Z,62.60
2023-08-24T03:59:39.361Z,62.30
2023-08-24T04:02:07.311Z,62.60
2023-08-24T04:04:35.527Z,62.60
2023-08-24T04:07:04.034Z,62.00
2023-08-24T04:09:31.368Z,62.50
2023-08-24T04:11:58.695Z,62.70
2023-08-24T04:14:25.986Z,62.90
2023-08-24T04:16:54.665Z,63.00
2023-08-24T04:19:22.034Z,62.90
2023-08-24T04:21:49.429Z,62.90
2023-08-24T04:24:16.802Z,62.80
2023-08-24T04:26:44.160Z,61.60
2023-08-24T04:29:11.590Z,62.50
2023-08-24T04:31:41.682Z,62.60
2023-08-24T04:34:10.552Z,62.40
2023-08-24T04:36:38.109Z,62.30
2023-08-24T04:39:05.436Z,61.40
2023-08-24T04:41:32.840Z,62.30
2023-08-24T04:44:00.130Z,62.30
2023-08-24T04:46:27.738Z,62.20
2023-08-24T04:48:55.132Z,62.00
2023-08-24T04:51:23.783Z,62.50
2023-08-24T04:53:51.073Z,62.10
2023-08-24T04:56:20.191Z,62.10
2023-08-24T04:58:55.165Z,62.30
2023-08-24T05:01:22.552Z,62.50
2023-08-24T05:03:49.967Z,62.40
2023-08-24T05:06:17.343Z,62.10
2023-08-24T05:08:46.127Z,62.10
2023-08-24T05:11:14.769Z,61.60
2023-08-24T05:13:42.148Z,61.10
2023-08-24T05:16:10.611Z,61.90
2023-08-24T05:18:37.926Z,62.40
2023-08-24T05:21:05.444Z,61.80
2023-08-24T05:23:33.308Z,61.90
2023-08-24T05:26:03.371Z,61.30
2023-08-24T05:28:33.282Z,61.70
2023-08-24T05:31:00.846Z,61.80
2023-08-24T05:33:28.426Z,61.40
2023-08-24T05:35:55.743Z,61.40
2023-08-24T05:38:23.154Z,61.70
2023-08-24T05:40:50.852Z,61.70
2023-08-24T05:43:19.609Z,61.50
2023-08-24T05:45:48.024Z,61.70
2023-08-24T05:48:15.605Z,61.70
2023-08-24T05:50:47.417Z,61.60
2023-08-24T05:53:15.309Z,61.30
2023-08-24T05:55:42.777Z,61.80
2023-08-24T05:58:10.092Z,61.70
2023-08-24T06:00:38.724Z,61.60
2023-08-24T06:03:06.112Z,60.90
2023-08-24T06:05:33.520Z,61.10
2023-08-24T06:08:00.870Z,61.40
2023-08-24T06:10:28.596Z,61.30
2023-08-24T06:12:56.080Z,60.90
2023-08-24T06:15:29.091Z,60.60
2023-08-24T06:18:00.042Z,60.40
2023-08-24T06:20:27.410Z,60.70
2023-08-24T06:22:54.760Z,60.70
2023-08-24T06:25:22.096Z,60.40
2023-08-24T06:27:49.673Z,60.30
2023-08-24T06:30:17.260Z,59.90
2023-08-24T06:32:44.598Z,60.10
2023-08-24T06:35:15.620Z,60.00
2023-08-24T06:37:43.357Z,61.00
2023-08-24T06:40:11.860Z,60.00
2023-08-24T06:42:39.173Z,60.10
2023-08-24T06:45:08.028Z,59.60
2023-08-24T06:47:35.343Z,58.90
2023-08-24T06:50:02.743Z,59.40
2023-08-24T06:52:31.544Z,58.30
2023-08-24T06:54:58.943Z,58.40
2023-08-24T06:57:26.332Z,58.40
2023-08-24T06:59:53.667Z,58.40
2023-08-24T07:02:21.336Z,57.70
2023-08-24T07:04:48.756Z,57.70
2023-08-24T07:07:16.122Z,57.90
2023-08-24T07:09:44.807Z,58.30
2023-08-24T07:12:12.300Z,57.20
2023-08-24T07:14:39.728Z,57.60
2023-08-24T07:17:07.890Z,57.10
2023-08-24T07:19:35.212Z,57.30
2023-08-24T07:22:02.793Z,57.80
2023-08-24T07:24:44.738Z,57.90
2023-08-24T07:27:14.772Z,57.10
2023-08-24T07:29:42.498Z,55.90
2023-08-24T07:32:09.914Z,56.50
2023-08-24T07:34:37.443Z,57.30
2023-08-24T07:37:04.930Z,56.30
2023-08-24T07:39:33.277Z,56.90
2023-08-24T07:42:00.670Z,56.10
2023-08-24T07:44:29.460Z,55.40
2023-08-24T07:46:56.812Z,55.60
2023-08-24T07:49:24.161Z,56.70
2023-08-24T07:51:51.628Z,57.20
2023-08-24T07:54:19.002Z,55.60
2023-08-24T07:56:46.989Z,55.70
2023-08-24T07:59:14.327Z,55.00
2023-08-24T08:01:43.011Z,55.10
2023-08-24T08:04:10.742Z,55.10
2023-08-24T08:06:38.070Z,55.00
2023-08-24T08:09:05.386Z,55.10
2023-08-24T08:11:32.798Z,54.20
2023-08-24T08:14:02.266Z,54.30
2023-08-24T08:16:29.561Z,53.60
2023-08-24T08:18:58.339Z,54.00
2023-08-24T08:21:25.748Z,54.30
2023-08-24T08:23:53.391Z,54.00
2023-08-24T08:26:20.797Z,53.70
2023-08-24T08:28:48.288Z,52.40
2023-08-24T08:31:15.707Z,52.70
2023-08-24T08:33:43.171Z,52.50
2023-08-24T08:36:11.781Z,51.90
2023-08-24T08:38:39.291Z,51.50
2023-08-24T08:41:06.828Z,50.90
2023-08-24T08:43:34.270Z,51.60
2023-08-24T08:46:02.126Z,52.10
2023-08-24T08:48:30.164Z,51.70
2023-08-24T08:50:59.204Z,52.00
2023-08-24T08:53:28.096Z,51.40
2023-08-24T08:55:58.983Z,51.50
2023-08-24T08:58:28.376Z,51.30
2023-08-24T09:00:56.326Z,51.20
2023-08-24T09:03:25.022Z,51.80
2023-08-24T09:05:52.613Z,51.00
2023-08-24T09:08:21.250Z,52.00
2023-08-24T09:10:50.553Z,50.80
2023-08-24T09:13:18.596Z,51.00
2023-08-24T09:15:45.956Z,50.80
2023-08-24T09:18:13.395Z,51.50
2023-08-24T09:20:41.126Z,51.70
2023-08-24T09:23:20.251Z,51.80
2023-08-24T09:25:49.585Z,51.80
2023-08-24T09:28:25.578Z,50.90
2023-08-24T09:30:56.096Z,50.10
2023-08-24T09:33:26.145Z,50.20
2023-08-24T09:35:55.557Z,50.80
2023-08-24T09:38:24.578Z,50.70
2023-08-24T09:40:56.451Z,51.30
2023-08-24T09:43:24.448Z,51.00
2023-08-24T09:45:52.910Z,51.30
2023-08-24T09:48:21.215Z,50.90
2023-08-24T09:50:50.938Z,49.90
2023-08-24T09:53:20.075Z,48.60
2023-08-24T09:55:54.131Z,48.20
2023-08-24T09:58:23.777Z,48.80
2023-08-24T10:00:51.670Z,48.20
2023-08-24T10:03:21.927Z,48.10
2023-08-24T10:05:58.869Z,47.80
2023-08-24T10:08:38.255Z,48.30
2023-08-24T10:11:07.409Z,49.00
2023-08-24T10:13:43.458Z,48.10
2023-08-24T10:16:14.197Z,47.20
2023-08-24T10:18:41.816Z,46.40
2023-08-24T10:21:09.661Z,46.20
2023-08-24T10:23:38.596Z,45.30
2023-08-24T10:26:08.287Z,46.60
2023-08-24T10:28:37.869Z,47.00
2023-08-24T10:31:05.532Z,46.20
2023-08-24T10:33:35.432Z,46.70
2023-08-24T10:36:06.765Z,46.20
2023-08-24T10:38:37.248Z,46.10
2023-08-24T10:41:05.437Z,46.00
2023-08-24T10:43:38.200Z,46.90
2023-08-24T10:46:12.135Z,45.70
2023-08-24T10:49:01.068Z,46.30
2023-08-24T10:51:29.957Z,44.30
2023-08-24T10:53:58.612Z,44.90
2023-08-24T10:56:36.310Z,45.50
2023-08-24T10:59:18.262Z,46.40
2023-08-24T11:01:56.907Z,44.70
2023-08-24T11:04:24.354Z,44.50
2023-08-24T11:06:56.282Z,43.70
2023-08-24T11:09:24.638Z,43.80
2023-08-24T11:11:58.819Z,43.70
2023-08-24T11:14:29.795Z,43.80
2023-08-24T11:17:00.263Z,44.60
2023-08-24T11:19:27.937Z,43.10
2023-08-24T11:21:55.369Z,41.30
2023-08-24T11:24:25.423Z,41.90
2023-08-24T11:26:53.683Z,40.10
2023-08-24T11:29:21.334Z,39.40
2023-08-24T11:31:52.477Z,38.90
2023-08-24T11:34:19.850Z,38.80
2023-08-24T11:36:51.429Z,39.70
2023-08-24T11:39:21.290Z,40.30
2023-08-24T11:41:59.421Z,38.30
2023-08-24T11:44:29.604Z,38.00
2023-08-24T11:47:00.458Z,37.80
2023-08-24T11:49:28.267Z,37.10
2023-08-24T11:51:56.523Z,36.80
2023-08-24T11:54:23.922Z,36.50
2023-08-24T11:56:51.316Z,35.50
2023-08-24T11:59:18.956Z,34.20
2023-08-24T12:01:47.823Z,34.30
2023-08-24T12:04:16.581Z,35.70
2023-08-24T12:06:43.920Z,33.50
2023-08-24T12:09:11.414Z,34.60
2023-08-24T12:11:40.181Z,34.70
2023-08-24T12:14:11.014Z,33.90
2023-08-24T12:16:38.736Z,35.50
2023-08-24T12:19:08.680Z,34.70
2023-08-24T12:21:37.384Z,34.80
2023-08-24T12:24:10.378Z,34.60
2023-08-24T12:26:37.825Z,34.30
2023-08-24T12:29:09.123Z,33.30
2023-08-24T12:31:37.315Z,33.80
2023-08-24T12:34:06.315Z,34.10
2023-08-24T12:36:34.869Z,33.30
2023-08-24T12:39:08.722Z,34.20
2023-08-24T12:41:36.153Z,33.70
2023-08-24T12:44:06.696Z,34.80
2023-08-24T12:46:34.436Z,35.00
2023-08-24T12:49:01.872Z,34.50
2023-08-24T12:51:29.308Z,34.10
2023-08-24T12:53:56.674Z,33.40
2023-08-24T12:56:25.288Z,34.50
2023-08-24T12:58:52.652Z,34.90
2023-08-24T13:01:19.997Z,34.90
2023-08-24T13:03:47.339Z,33.30
2023-08-24T13:06:24.387Z,33.60
2023-08-24T13:08:53.829Z,33.90
2023-08-24T13:11:22.009Z,33.80
2023-08-24T13:13:50.787Z,33.90
2023-08-24T13:16:18.226Z,33.40
2023-08-24T13:18:45.670Z,33.40
2023-08-24T13:21:13.298Z,33.50
2023-08-24T13:23:40.982Z,33.30
2023-08-24T13:26:19.286Z,33.30
2023-08-24T13:28:47.019Z,32.10
2023-08-24T13:31:15.787Z,31.90
2023-08-24T13:33:43.191Z,32.90
2023-08-24T13:36:10.897Z,33.20
2023-08-24T13:38:39.369Z,33.70
2023-08-24T13:41:06.835Z,33.60
2023-08-24T13:43:34.123Z,31.60
2023-08-24T13:46:04.403Z,32.40
2023-08-24T13:48:35.583Z,32.90
2023-08-24T13:51:03.156Z,32.90
2023-08-24T13:53:30.859Z,32.50
2023-08-24T13:55:58.221Z,32.70
2023-08-24T13:58:25.551Z,33.00
2023-08-24T14:00:56.838Z,32.50
2023-08-24T14:03:24.356Z,31.30
2023-08-24T14:05:57.703Z,32.80
2023-08-24T14:08:25.374Z,32.10
2023-08-24T14:10:53.089Z,32.00
2023-08-24T14:13:21.330Z,31.50
2023-08-24T14:15:49.474Z,32.90
2023-08-24T14:18:17.919Z,33.30
2023-08-24T14:20:45.304Z,33.60
2023-08-24T14:23:13.933Z,32.00
2023-08-24T14:25:41.253Z,34.20
2023-08-24T14:28:10.474Z,32.70
2023-08-24T14:30:39.855Z,32.80
2023-08-24T14:33:07.235Z,31.80
2023-08-24T14:35:34.605Z,32.10
2023-08-24T14:38:02.178Z,33.50
2023-08-24T14:40:31.083Z,33.30
2023-08-24T14:42:58.676Z,33.20
2023-08-24T14:45:25.971Z,33.50
2023-08-24T14:47:53.646Z,34.00
2023-08-24T14:50:21.237Z,33.30
2023-08-24T14:52:48.779Z,33.50
2023-08-24T14:55:16.221Z,33.40
2023-08-24T14:57:45.025Z,33.60
2023-08-24T15:00:13.644Z,33.90
2023-08-24T15:02:43.048Z,33.00
2023-08-24T15:05:10.542Z,33.60
2023-08-24T15:07:37.862Z,33.60
2023-08-24T15:10:06.497Z,33.90
2023-08-24T15:12:33.850Z,34.20
2023-08-24T15:15:04.366Z,35.10
2023-08-24T15:17:32.999Z,33.80
2023-08-24T15:20:00.513Z,34.40
2023-08-24T15:22:30.969Z,34.90
2023-08-24T15:24:58.556Z,35.70
2023-08-24T15:27:26.099Z,36.00
2023-08-24T15:29:53.504Z,36.00
2023-08-24T15:32:22.479Z,36.80
2023-08-24T15:34:49.974Z,36.70
2023-08-24T15:37:17.303Z,36.30
2023-08-24T15:39:44.654Z,36.60
2023-08-24T15:42:12.009Z,36.60
2023-08-24T15:44:39.303Z,37.10
2023-08-24T15:47:06.768Z,37.20
2023-08-24T15:49:35.440Z,36.90
2023-08-24T15:52:02.785Z,36.50
2023-08-24T15:54:30.107Z,37.70
2023-08-24T15:56:57.649Z,38.10
2023-08-24T15:59:24.975Z,38.60
2023-08-24T16:01:52.847Z,38.50
2023-08-24T16:04:20.221Z,38.30
2023-08-24T16:06:48.916Z,37.60
2023-08-24T16:09:16.280Z,38.70
2023-08-24T16:11:43.706Z,38.60
2023-08-24T16:14:12.653Z,38.80
2023-08-24T16:16:40.313Z,38.80
2023-08-24T16:19:08.165Z,37.80
2023-08-24T16:21:35.891Z,38.60
2023-08-24T16:24:04.734Z,38.50
2023-08-24T16:26:32.103Z,38.70
2023-08-24T16:28:59.394Z,38.90
2023-08-24T16:31:26.753Z,38.80
2023-08-24T16:33:54.134Z,38.90
2023-08-24T16:36:21.529Z,38.50
2023-08-24T16:38:48.980Z,38.40
2023-08-24T16:41:17.608Z,39.30
2023-08-24T16:43:45.006Z,39.70
2023-08-24T16:46:12.373Z,40.20
2023-08-24T16:48:39.726Z,40.30
2023-08-24T16:51:07.036Z,40.30
2023-08-24T16:53:34.341Z,40.60
2023-08-24T16:56:01.636Z,40.50
2023-08-24T16:58:31.140Z,40.70
2023-08-24T17:01:05.343Z,40.50
2023-08-24T17:03:32.809Z,40.40
2023-08-24T17:06:00.164Z,40.20
2023-08-24T17:08:27.547Z,41.00
2023-08-24T17:10:54.895Z,41.10
2023-08-24T17:13:22.735Z,41.30
2023-08-24T17:15:51.802Z,41.10
2023-08-24T17:18:19.508Z,41.60
2023-08-24T17:20:47.581Z,41.60
2023-08-24T17:23:15.133Z,41.80
2023-08-24T17:25:47.592Z,41.80
2023-08-24T17:28:14.989Z,41.60
2023-08-24T17:30:47.937Z,42.10
2023-08-24T17:33:16.794Z,41.90
2023-08-24T17:35:44.203Z,42.40
2023-08-24T17:38:11.502Z,42.40
2023-08-24T17:40:38.829Z,42.60
2023-08-24T17:43:06.343Z,42.90
2023-08-24T17:45:33.724Z,43.10
2023-08-24T17:48:01.105Z,43.40
2023-08-24T17:50:29.865Z,43.60
2023-08-24T17:52:57.178Z,43.70
2023-08-24T17:55:24.546Z,44.10
2023-08-24T17:57:52.208Z,44.10
2023-08-24T18:00:20.091Z,44.20
2023-08-24T18:02:47.877Z,44.50
2023-08-24T18:05:15.384Z,44.60
2023-08-24T18:07:44.074Z,44.70
2023-08-24T18:10:11.387Z,45.20
2023-08-24T18:12:38.708Z,45.60
2023-08-24T18:15:07.184Z,45.70
2023-08-24T18:17:35.004Z,46.20
2023-08-24T18:20:02.571Z,46.10
2023-08-24T18:22:29.900Z,46.60
2023-08-24T18:24:58.690Z,46.70
2023-08-24T18:27:26.001Z,46.90
2023-08-24T18:29:55.074Z,46.90
2023-08-24T18:32:23.291Z,46.80
2023-08-24T18:34:50.640Z,46.70
2023-08-24T18:37:18.063Z,46.90
2023-08-24T18:39:46.060Z,47.40
2023-08-24T18:42:14.780Z,47.80
2023-08-24T18:44:42.284Z,47.80
2023-08-24T18:47:09.582Z,48.00
2023-08-24T18:49:36.930Z,48.30
2023-08-24T18:52:04.874Z,48.50
2023-08-24T18:54:32.208Z,48.50
2023-08-24T18:57:00.861Z,48.20
2023-08-24T18:59:29.729Z,48.50
2023-08-24T19:01:57.039Z,48.50
2023-08-24T19:04:24.377Z,48.40
2023-08-24T19:06:53.366Z,48.50
2023-08-24T19:09:20.680Z,48.60
2023-08-24T19:11:48.030Z,48.50
2023-08-24T19:14:15.345Z,48.70
2023-08-24T19:16:45.308Z,48.90
2023-08-24T19:19:12.625Z,49.10
2023-08-24T19:21:39.955Z,49.30
2023-08-24T19:24:07.348Z,49.50
2023-08-24T19:26:34.726Z,49.70
2023-08-24T19:29:02.526Z,49.80
2023-08-24T19:31:30.012Z,50.00
2023-08-24T19:33:58.684Z,50.20
2023-08-24T19:36:26.040Z,50.10
2023-08-24T19:38:53.352Z,50.10
2023-08-24T19:41:21.066Z,50.20
2023-08-24T19:43:48.424Z,50.50
2023-08-24T19:46:15.830Z,50.50
2023-08-24T19:48:43.426Z,50.60
2023-08-24T19:51:12.133Z,50.70
2023-08-24T19:53:39.442Z,50.60
2023-08-24T19:56:06.811Z,50.80
2023-08-24T19:58:34.175Z,51.40
2023-08-24T20:01:01.532Z,51.80
2023-08-24T20:03:29.114Z,52.00
2023-08-24T20:05:56.655Z,52.60
2023-08-24T20:08:28.096Z,52.50
2023-08-24T20:10:55.607Z,52.80
2023-08-24T20:13:23.082Z,52.90
2023-08-24T20:15:50.535Z,53.00
2023-08-24T20:18:18.107Z,52.80
2023-08-24T20:20:46.137Z,53.30
2023-08-24T20:23:13.551Z,52.80
2023-08-24T20:25:42.958Z,52.90
2023-08-24T20:28:10.277Z,53.20
2023-08-24T20:30:37.668Z,52.90
2023-08-24T20:33:05.432Z,53.50
2023-08-24T20:35:32.784Z,53.70
2023-08-24T20:38:00.078Z,53.60
2023-08-24T20:40:27.435Z,53.80
2023-08-24T20:42:56.088Z,54.00
2023-08-24T20:45:23.445Z,54.00
2023-08-24T20:47:51.356Z,53.70
2023-08-24T20:50:18.997Z,54.70
2023-08-24T20:52:46.432Z,54.40
2023-08-24T20:55:17.322Z,54.40
2023-08-24T20:57:44.707Z,54.80
2023-08-24T21:00:13.965Z,54.80
2023-08-24T21:02:42.289Z,54.60
2023-08-24T21:05:10.461Z,55.20
2023-08-24T21:07:39.058Z,54.90
2023-08-24T21:10:07.280Z,54.80
2023-08-24T21:12:34.590Z,54.80
2023-08-24T21:15:02.023Z,55.10
2023-08-24T21:17:30.935Z,54.90
2023-08-24T21:19:58.877Z,55.20
2023-08-24T21:22:26.229Z,55.00
2023-08-24T21:24:53.613Z,54.90
2023-08-24T21:27:20.943Z,54.80
2023-08-24T21:29:50.731Z,55.30
2023-08-24T21:32:18.064Z,55.00
2023-08-24T21:34:46.701Z,55.20
2023-08-24T21:37:14.322Z,54.90
2023-08-24T21:39:41.609Z,55.20
2023-08-24T21:42:09.048Z,54.90
2023-08-24T21:44:36.460Z,54.90
2023-08-24T21:47:03.823Z,55.20
2023-08-24T21:49:31.269Z,54.80
2023-08-24T21:52:00.173Z,54.70
2023-08-24T21:54:27.504Z,54.90
2023-08-24T21:56:54.867Z,55.00
2023-08-24T21:59:22.244Z,54.70
2023-08-24T22:01:49.613Z,55.40
2023-08-24T22:04:17.732Z,55.40
2023-08-24T22:06:45.077Z,55.40
2023-08-24T22:09:13.716Z,54.90
2023-08-24T22:11:41.136Z,54.90
2023-08-24T22:14:08.464Z,55.20
2023-08-24T22:16:35.893Z,55.20
2023-08-24T22:19:07.868Z,55.10
2023-08-24T22:21:41.170Z,55.40
2023-08-24T22:24:08.572Z,55.20
2023-08-24T22:26:37.214Z,55.10
2023-08-24T22:29:05.476Z,54.90
2023-08-24T22:31:32.810Z,54.90
2023-08-24T22:34:00.127Z,55.10
2023-08-24T22:36:27.407Z,55.30
2023-08-24T22:38:54.703Z,55.00
2023-08-24T22:41:22.012Z,55.00
2023-08-24T22:43:51.120Z,55.20
2023-08-24T22:46:18.498Z,55.20
2023-08-24T22:48:45.816Z,55.00
2023-08-24T22:51:13.128Z,55.10
2023-08-24T22:53:40.716Z,55.20
2023-08-24T22:56:08.011Z,54.70
2023-08-24T22:58:35.492Z,55.20
2023-08-24T23:01:14.703Z,55.40
2023-08-24T23:03:42.164Z,55.60
2023-08-24T23:06:14.804Z,55.20
2023-08-24T23:08:42.444Z,55.50
2023-08-24T23:11:10.015Z,55.00
2023-08-24T23:13:37.338Z,55.30
2023-08-24T23:16:06.386Z,55.70
2023-08-24T23:18:33.786Z,55.60
2023-08-24T23:21:01.647Z,55.40
2023-08-24T23:23:28.993Z,54.80
2023-08-24T23:25:56.366Z,54.80
2023-08-24T23:28:23.992Z,54.80
2023-08-24T23:30:51.296Z,55.00
2023-08-24T23:33:19.932Z,55.50
2023-08-24T23:35:47.223Z,55.10
2023-08-24T23:38:14.547Z,55.00
2023-08-24T23:40:41.941Z,55.00
2023-08-24T23:43:09.958Z,54.90
2023-08-24T23:45:37.350Z,54.70
2023-08-24T23:48:05.286Z,54.90
2023-08-24T23:50:33.963Z,54.90
2023-08-24T23:53:01.554Z,54.40
2023-08-24T23:55:29.415Z,55.40
2023-08-24T23:57:57.904Z,55.00
